Ailey, Georgia
Current Conditions -  °F | °C
As of 11:55 AM on Tuesday 27 Jan 2015 (Local Time) from KVDI Reporting Station
Overcast Overcast  
Wind Chill: 50°   Ceiling: 6000
Heat Index: 50°   Visibility: 10mi
Dew Point: 36°   Wind: 14mph
Humidity: 58%   Direction: 310°NW
Pressure: 29.93"   Gusts: 22mph
Location:  32.19°N, 82.57°W
Report Text: KVDI 271655Z AUTO 31012G19KT 10SM OVC060 10/02 A2993 RMK AO2
Loading
Personal Weather Stations






























Interactive Weather Map New forecast layout! Learn more

10-Day Weather Forecast

Advertisements
Track Severe Weather on mobile